createdAt,value
2023-01-04T00:01:32.801Z,10.10
2023-01-04T00:04:02.536Z,10.10
2023-01-04T00:06:30.041Z,10.10
2023-01-04T00:08:57.429Z,10.10
2023-01-04T00:11:25.243Z,10.10
2023-01-04T00:13:56.609Z,10.10
2023-01-04T00:16:25.781Z,10.00
2023-01-04T00:18:54.316Z,9.90
2023-01-04T00:21:24.167Z,9.90
2023-01-04T00:23:54.723Z,9.90
2023-01-04T00:26:24.770Z,9.90
2023-01-04T00:28:56.627Z,9.90
2023-01-04T00:31:25.223Z,9.90
2023-01-04T00:34:01.960Z,9.90
2023-01-04T00:36:30.387Z,9.90
2023-01-04T00:39:08.954Z,9.90
2023-01-04T00:41:58.902Z,10.00
2023-01-04T00:44:27.791Z,10.00
2023-01-04T00:46:55.817Z,9.90
2023-01-04T00:49:23.482Z,9.90
2023-01-04T00:51:51.243Z,9.90
2023-01-04T00:54:19.477Z,9.80
2023-01-04T00:56:47.334Z,9.80
2023-01-04T00:59:16.929Z,9.80
2023-01-04T01:01:45.322Z,9.70
2023-01-04T01:04:15.464Z,9.80
2023-01-04T01:06:42.957Z,9.80
2023-01-04T01:09:10.388Z,9.80
2023-01-04T01:11:39.677Z,9.80
2023-01-04T01:14:08.066Z,9.80
2023-01-04T01:16:54.447Z,9.80
2023-01-04T01:19:23.083Z,9.80
2023-01-04T01:21:50.547Z,9.80
2023-01-04T01:24:19.648Z,9.80
2023-01-04T01:26:47.287Z,9.80
2023-01-04T01:29:14.754Z,9.80
2023-01-04T01:31:42.623Z,9.80
2023-01-04T01:34:10.237Z,9.90
2023-01-04T01:36:37.817Z,9.90
2023-01-04T01:39:06.449Z,9.90
2023-01-04T01:41:35.366Z,9.90
2023-01-04T01:44:27.710Z,9.90
2023-01-04T01:46:55.493Z,9.80
2023-01-04T01:49:30.997Z,9.80
2023-01-04T01:52:02.466Z,9.80
2023-01-04T01:54:36.295Z,9.80
2023-01-04T01:57:06.633Z,9.90
2023-01-04T01:59:38.555Z,10.00
2023-01-04T02:02:06.287Z,10.00
2023-01-04T02:04:36.488Z,9.90
2023-01-04T02:07:04.555Z,9.80
2023-01-04T02:09:33.354Z,9.90
2023-01-04T02:12:00.900Z,9.90
2023-01-04T02:14:29.210Z,10.00
2023-01-04T02:16:56.756Z,10.00
2023-01-04T02:19:54.048Z,10.00
2023-01-04T02:22:52.035Z,10.00
2023-01-04T02:25:38.365Z,9.90
2023-01-04T02:28:28.285Z,9.90
2023-01-04T02:31:06.161Z,9.90
2023-01-04T02:33:36.369Z,9.90
2023-01-04T02:36:11.846Z,9.90
2023-01-04T02:39:01.302Z,9.90
2023-01-04T02:41:38.673Z,9.80
2023-01-04T02:44:33.416Z,9.80
2023-01-04T02:47:11.506Z,9.80
2023-01-04T02:50:04.229Z,9.80
2023-01-04T02:52:33.479Z,9.80
2023-01-04T02:55:04.476Z,9.80
2023-01-04T02:57:34.892Z,9.80
2023-01-04T03:00:27.960Z,9.80
2023-01-04T03:03:55.029Z,9.80
2023-01-04T03:06:30.527Z,9.80
2023-01-04T03:09:02.771Z,9.80
2023-01-04T03:12:05.858Z,9.80
2023-01-04T03:14:43.064Z,9.70
2023-01-04T03:17:14.634Z,9.70
2023-01-04T03:19:54.684Z,9.70
2023-01-04T03:22:54.141Z,9.60
2023-01-04T03:25:44.713Z,9.70
2023-01-04T03:28:33.415Z,9.70
2023-01-04T03:31:52.720Z,9.70
2023-01-04T03:34:39.120Z,9.70
2023-01-04T03:37:44.496Z,9.70
2023-01-04T03:40:46.157Z,9.70
2023-01-04T03:43:38.140Z,9.60
2023-01-04T03:46:49.841Z,9.70
2023-01-04T03:49:31.256Z,9.70
2023-01-04T03:52:02.415Z,9.80
2023-01-04T03:54:42.019Z,9.70
2023-01-04T03:57:11.205Z,9.70
2023-01-04T03:59:57.705Z,9.70
2023-01-04T04:02:29.978Z,9.60
2023-01-04T04:05:16.042Z,9.60
2023-01-04T04:08:01.937Z,9.60
2023-01-04T04:10:29.303Z,9.60
2023-01-04T04:12:56.636Z,9.60
2023-01-04T04:15:24.026Z,9.60
2023-01-04T04:17:51.376Z,9.60
2023-01-04T04:20:18.746Z,9.70
2023-01-04T04:22:46.104Z,9.70
2023-01-04T04:25:13.649Z,9.70
2023-01-04T04:27:41.030Z,9.70
2023-01-04T04:30:09.018Z,9.70
2023-01-04T04:32:36.465Z,9.60
2023-01-04T04:35:04.336Z,9.60
2023-01-04T04:37:32.217Z,9.60
2023-01-04T04:39:59.767Z,9.60
2023-01-04T04:42:27.186Z,9.60
2023-01-04T04:44:54.507Z,9.50
2023-01-04T04:47:22.096Z,9.40
2023-01-04T04:49:49.492Z,9.40
2023-01-04T04:52:16.900Z,9.40
2023-01-04T04:54:44.324Z,9.40
2023-01-04T04:57:11.702Z,9.40
2023-01-04T04:59:39.049Z,9.40
2023-01-04T05:02:06.575Z,9.40
2023-01-04T05:04:34.167Z,9.50
2023-01-04T05:07:01.571Z,9.50
2023-01-04T05:09:28.940Z,9.40
2023-01-04T05:12:14.901Z,9.40
2023-01-04T05:14:42.251Z,9.30
2023-01-04T05:17:09.694Z,9.30
2023-01-04T05:19:37.173Z,9.30
2023-01-04T05:22:04.508Z,9.20
2023-01-04T05:24:31.866Z,9.10
2023-01-04T05:26:59.200Z,9.10
2023-01-04T05:29:45.236Z,9.10
2023-01-04T05:32:12.688Z,9.10
2023-01-04T05:34:40.098Z,9.10
2023-01-04T05:37:07.513Z,9.10
2023-01-04T05:39:34.963Z,9.10
2023-01-04T05:42:20.751Z,9.10
2023-01-04T05:44:48.106Z,9.10
2023-01-04T05:47:15.551Z,9.10
2023-01-04T05:49:43.298Z,9.00
2023-01-04T05:52:11.154Z,9.00
2023-01-04T05:54:38.622Z,8.90
2023-01-04T05:57:06.708Z,8.90
2023-01-04T05:59:40.915Z,8.80
2023-01-04T06:02:26.244Z,8.80
2023-01-04T06:04:58.662Z,8.70
2023-01-04T06:07:30.440Z,8.70
2023-01-04T06:09:57.985Z,8.70
2023-01-04T06:12:25.528Z,8.70
2023-01-04T06:14:53.047Z,8.70
2023-01-04T06:17:20.847Z,8.60
2023-01-04T06:19:49.146Z,8.60
2023-01-04T06:22:16.747Z,8.50
2023-01-04T06:24:44.145Z,8.50
2023-01-04T06:27:13.607Z,8.50
2023-01-04T06:29:41.554Z,8.50
2023-01-04T06:32:08.977Z,8.50
2023-01-04T06:34:36.376Z,8.50
2023-01-04T06:37:04.026Z,8.40
2023-01-04T06:39:31.404Z,8.50
2023-01-04T06:42:05.837Z,8.50
2023-01-04T06:44:34.417Z,8.50
2023-01-04T06:47:01.801Z,8.50
2023-01-04T06:49:29.185Z,8.50
2023-01-04T06:51:56.525Z,8.50
2023-01-04T06:54:23.908Z,8.40
2023-01-04T06:56:51.241Z,8.40
2023-01-04T06:59:18.595Z,8.40
2023-01-04T07:01:46.109Z,8.30
2023-01-04T07:04:13.598Z,8.30
2023-01-04T07:06:40.953Z,8.30
2023-01-04T07:09:08.409Z,8.30
2023-01-04T07:11:35.771Z,8.30
2023-01-04T07:14:03.150Z,8.30
2023-01-04T07:16:30.606Z,8.20
2023-01-04T07:18:58.028Z,8.10
2023-01-04T07:21:27.036Z,8.10
2023-01-04T07:23:54.408Z,8.10
2023-01-04T07:26:21.785Z,8.10
2023-01-04T07:29:07.739Z,8.20
2023-01-04T07:31:35.194Z,8.10
2023-01-04T07:34:02.742Z,8.10
2023-01-04T07:36:30.057Z,8.10
2023-01-04T07:39:00.123Z,8.10
2023-01-04T07:41:27.890Z,8.10
2023-01-04T07:43:55.271Z,8.20
2023-01-04T07:46:22.766Z,8.20
2023-01-04T07:48:50.973Z,8.20
2023-01-04T07:51:18.295Z,8.20
2023-01-04T07:53:45.650Z,8.30
2023-01-04T07:56:18.452Z,8.30
2023-01-04T07:58:46.292Z,8.40
2023-01-04T08:01:16.316Z,8.40
2023-01-04T08:03:47.948Z,8.50
2023-01-04T08:06:17.968Z,8.60
2023-01-04T08:08:45.484Z,8.60
2023-01-04T08:11:15.732Z,8.60
2023-01-04T08:13:43.700Z,8.70
2023-01-04T08:16:27.665Z,8.60
2023-01-04T08:18:56.725Z,8.50
2023-01-04T08:21:25.197Z,8.50
2023-01-04T08:23:53.370Z,8.50
2023-01-04T08:26:21.717Z,8.60
2023-01-04T08:28:50.403Z,8.60
2023-01-04T08:31:20.354Z,8.60
2023-01-04T08:33:48.769Z,8.60
2023-01-04T08:36:26.732Z,8.60
2023-01-04T08:39:01.052Z,8.50
2023-01-04T08:44:38.267Z,8.50
2023-01-04T08:47:05.911Z,8.70
2023-01-04T08:49:33.562Z,8.80
2023-01-04T08:52:00.984Z,8.70
2023-01-04T08:54:28.356Z,8.70
2023-01-04T08:56:58.924Z,8.70
2023-01-04T08:59:26.351Z,8.80
2023-01-04T09:01:53.829Z,8.90
2023-01-04T09:04:22.366Z,9.00
2023-01-04T09:06:49.793Z,9.10
2023-01-04T09:09:17.385Z,9.10
2023-01-04T09:11:44.851Z,9.20
2023-01-04T09:14:13.977Z,9.30
2023-01-04T09:16:41.722Z,9.20
2023-01-04T09:19:09.235Z,9.20
2023-01-04T09:21:36.664Z,9.30
2023-01-04T09:24:04.373Z,9.50
2023-01-04T09:26:31.799Z,9.50
2023-01-04T09:28:59.184Z,9.60
2023-01-04T09:31:28.640Z,9.60
2023-01-04T09:34:15.209Z,9.60
2023-01-04T09:36:44.041Z,9.70
2023-01-04T09:39:21.516Z,9.70
2023-01-04T09:41:58.746Z,9.70
2023-01-04T09:47:29.693Z,9.90
2023-01-04T09:50:03.004Z,9.90
2023-01-04T09:52:56.527Z,10.00
2023-01-04T09:55:42.607Z,10.00
2023-01-04T09:58:17.883Z,10.10
2023-01-04T10:00:48.867Z,10.30
2023-01-04T10:03:23.054Z,10.40
2023-01-04T10:05:54.820Z,10.60
2023-01-04T10:08:22.660Z,10.90
2023-01-04T10:10:54.791Z,11.30
2023-01-04T10:13:27.284Z,11.60
2023-01-04T10:16:13.125Z,11.90
2023-01-04T10:19:36.636Z,12.20
2023-01-04T10:21:53.437Z,12.40
2023-01-04T10:24:45.505Z,12.40
2023-01-04T10:27:31.384Z,12.50
2023-01-04T10:30:24.613Z,12.30
2023-01-04T10:33:08.473Z,12.20
2023-01-04T10:35:36.561Z,12.10
2023-01-04T10:38:15.669Z,12.10
2023-01-04T10:40:46.433Z,12.60
2023-01-04T10:43:32.049Z,13.10
2023-01-04T10:46:46.051Z,13.30
2023-01-04T10:49:24.366Z,13.40
2023-01-04T10:52:14.859Z,13.50
2023-01-04T10:54:52.380Z,13.60
2023-01-04T10:57:51.945Z,13.40
2023-01-04T11:00:25.589Z,13.20
2023-01-04T11:03:08.731Z,13.10
2023-01-04T11:06:00.134Z,13.00
2023-01-04T11:08:33.571Z,13.00
2023-01-04T11:11:08.266Z,12.90
2023-01-04T11:13:36.035Z,12.80
2023-01-04T11:16:05.521Z,12.90
2023-01-04T11:18:38.567Z,12.80
2023-01-04T11:21:10.211Z,12.80
2023-01-04T11:23:37.631Z,12.80
2023-01-04T11:26:21.690Z,12.80
2023-01-04T11:28:57.536Z,12.80
2023-01-04T11:31:51.028Z,12.90
2023-01-04T11:34:18.568Z,12.90
2023-01-04T11:36:47.576Z,13.00
2023-01-04T11:39:20.941Z,12.90
2023-01-04T11:42:03.383Z,13.00
2023-01-04T11:44:33.342Z,13.00
2023-01-04T11:47:26.638Z,13.10
2023-01-04T11:49:56.309Z,13.10
2023-01-04T11:52:36.351Z,13.10
2023-01-04T11:55:22.274Z,13.20
2023-01-04T11:58:12.790Z,13.20
2023-01-04T12:00:53.907Z,13.20
2023-01-04T12:03:40.129Z,13.30
2023-01-04T12:06:40.904Z,13.20
2023-01-04T12:09:15.776Z,13.20
2023-01-04T12:11:50.367Z,13.20
2023-01-04T12:14:40.723Z,13.20
2023-01-04T12:17:17.074Z,13.20
2023-01-04T12:19:46.464Z,13.20
2023-01-04T12:22:37.748Z,13.20
2023-01-04T12:25:25.796Z,13.30
2023-01-04T12:27:55.520Z,13.30
2023-01-04T12:30:53.019Z,13.30
2023-01-04T12:33:32.593Z,13.40
2023-01-04T12:36:04.875Z,13.50
2023-01-04T12:38:50.851Z,13.60
2023-01-04T12:41:23.143Z,13.70
2023-01-04T12:43:51.102Z,13.70
2023-01-04T12:46:49.039Z,13.70
2023-01-04T12:49:28.665Z,13.70
2023-01-04T12:55:44.932Z,13.60
2023-01-04T12:58:42.270Z,13.60
2023-01-04T13:01:33.647Z,13.60
2023-01-04T13:04:22.951Z,13.50
2023-01-04T13:06:50.838Z,13.50
2023-01-04T13:09:24.209Z,13.50
2023-01-04T13:12:12.694Z,13.50
2023-01-04T13:14:47.076Z,13.50
2023-01-04T13:17:26.256Z,13.40
2023-01-04T13:19:54.635Z,13.50
2023-01-04T13:22:29.424Z,13.50
2023-01-04T13:25:00.072Z,13.50
2023-01-04T13:27:28.062Z,13.60
2023-01-04T13:29:55.898Z,13.60
2023-01-04T13:32:46.982Z,13.70
2023-01-04T13:35:21.327Z,13.70
2023-01-04T13:37:50.961Z,13.70
2023-01-04T13:40:32.669Z,13.60
2023-01-04T13:43:17.510Z,13.60
2023-01-04T13:46:22.691Z,13.50
2023-01-04T13:48:53.047Z,13.40
2023-01-04T13:51:30.625Z,13.30
2023-01-04T13:54:17.181Z,13.30
2023-01-04T13:56:47.153Z,13.30
2023-01-04T13:59:20.507Z,13.20
2023-01-04T14:01:51.418Z,13.30
2023-01-04T14:04:27.788Z,13.30
2023-01-04T14:06:58.347Z,13.30
2023-01-04T14:09:30.608Z,13.40
2023-01-04T14:12:07.194Z,13.40
2023-01-04T14:14:37.483Z,13.40
2023-01-04T14:17:10.672Z,13.30
2023-01-04T14:19:41.641Z,13.20
2023-01-04T14:22:21.294Z,13.00
2023-01-04T14:27:40.933Z,12.70
2023-01-04T14:30:20.794Z,12.60
2023-01-04T14:33:00.562Z,12.50
2023-01-04T14:35:29.959Z,12.50
2023-01-04T14:38:04.778Z,12.50
2023-01-04T14:40:32.573Z,12.50
2023-01-04T14:43:00.190Z,12.50
2023-01-04T14:45:27.595Z,12.40
2023-01-04T14:47:54.939Z,12.40
2023-01-04T14:50:22.392Z,12.40
2023-01-04T14:52:54.170Z,12.30
2023-01-04T14:55:23.461Z,12.20
2023-01-04T14:57:50.985Z,12.20
2023-01-04T15:00:19.790Z,12.20
2023-01-04T15:02:51.973Z,12.20
2023-01-04T15:05:20.435Z,12.10
2023-01-04T15:07:49.736Z,12.10
2023-01-04T15:10:27.267Z,12.00
2023-01-04T15:12:55.612Z,12.00
2023-01-04T15:15:23.173Z,11.90
2023-01-04T15:17:50.984Z,11.90
2023-01-04T15:20:18.745Z,11.80
2023-01-04T15:22:46.243Z,11.70
2023-01-04T15:25:13.721Z,11.70
2023-01-04T15:27:42.711Z,11.60
2023-01-04T15:30:11.994Z,11.50
2023-01-04T15:32:39.887Z,11.50
2023-01-04T15:35:08.444Z,11.40
2023-01-04T15:37:35.967Z,11.40
2023-01-04T15:40:04.095Z,11.40
2023-01-04T15:42:49.877Z,11.40
2023-01-04T15:45:17.340Z,11.30
2023-01-04T15:47:44.721Z,11.30
2023-01-04T15:50:12.134Z,11.30
2023-01-04T15:52:39.475Z,11.20
2023-01-04T15:55:07.927Z,11.20
2023-01-04T15:57:38.717Z,11.20
2023-01-04T16:00:09.891Z,11.20
2023-01-04T16:02:39.909Z,11.20
2023-01-04T16:05:08.225Z,11.20
2023-01-04T16:07:36.666Z,11.20
2023-01-04T16:10:07.069Z,11.20
2023-01-04T16:12:44.494Z,11.20
2023-01-04T16:15:18.857Z,11.30
2023-01-04T16:17:47.471Z,11.30
2023-01-04T16:20:17.122Z,11.30
2023-01-04T16:22:44.840Z,11.30
2023-01-04T16:25:13.201Z,11.30
2023-01-04T16:27:41.204Z,11.30
2023-01-04T16:30:13.439Z,11.30
2023-01-04T16:32:42.356Z,11.30
2023-01-04T16:35:12.126Z,11.30
2023-01-04T16:37:39.595Z,11.40
2023-01-04T16:40:08.927Z,11.40
2023-01-04T16:42:37.755Z,11.30
2023-01-04T16:45:06.366Z,11.40
2023-01-04T16:47:40.311Z,11.40
2023-01-04T16:50:09.777Z,11.40
2023-01-04T16:52:37.370Z,11.50
2023-01-04T16:55:05.946Z,11.50
2023-01-04T16:57:33.331Z,11.40
2023-01-04T17:00:00.730Z,11.40
2023-01-04T17:02:28.180Z,11.30
2023-01-04T17:04:59.709Z,11.30
2023-01-04T17:07:32.453Z,11.30
2023-01-04T17:10:01.165Z,11.30
2023-01-04T17:12:46.985Z,11.30
2023-01-04T17:15:44.796Z,11.30
2023-01-04T17:18:02.174Z,11.30
2023-01-04T17:20:29.560Z,11.20
2023-01-04T17:22:57.170Z,11.20
2023-01-04T17:25:25.111Z,11.20
2023-01-04T17:27:52.502Z,11.20
2023-01-04T17:30:19.865Z,11.20
2023-01-04T17:32:47.667Z,11.20
2023-01-04T17:35:16.385Z,11.20
2023-01-04T17:37:44.715Z,11.20
2023-01-04T17:40:15.216Z,11.20
2023-01-04T17:42:46.535Z,11.20
2023-01-04T17:45:13.970Z,11.10
2023-01-04T17:47:41.374Z,11.10
2023-01-04T17:50:09.186Z,11.00
2023-01-04T17:52:37.639Z,11.00
2023-01-04T17:55:05.445Z,11.00
2023-01-04T17:57:34.999Z,11.00
2023-01-04T18:00:03.423Z,11.00
2023-01-04T18:02:33.184Z,11.00
2023-01-04T18:05:00.816Z,11.00
2023-01-04T18:07:28.269Z,11.00
2023-01-04T18:09:55.719Z,11.00
2023-01-04T18:12:23.109Z,11.00
2023-01-04T18:14:50.576Z,10.90
2023-01-04T18:17:18.041Z,11.00
2023-01-04T18:19:46.708Z,10.90
2023-01-04T18:22:14.191Z,10.90
2023-01-04T18:24:41.998Z,11.00
2023-01-04T18:27:23.077Z,11.00
2023-01-04T18:29:51.926Z,11.00
2023-01-04T18:32:20.527Z,11.00
2023-01-04T18:34:47.958Z,10.90
2023-01-04T18:37:16.577Z,10.90
2023-01-04T18:39:44.041Z,10.90
2023-01-04T18:42:11.457Z,10.90
2023-01-04T18:44:45.664Z,10.90
2023-01-04T18:47:16.239Z,11.00
2023-01-04T18:49:43.722Z,10.80
2023-01-04T18:52:11.286Z,10.80
2023-01-04T18:54:38.655Z,10.80
2023-01-04T18:57:06.189Z,10.80
2023-01-04T18:59:33.666Z,10.80
2023-01-04T19:02:02.261Z,10.80
2023-01-04T19:04:32.429Z,10.80
2023-01-04T19:07:00.542Z,10.80
2023-01-04T19:09:28.306Z,10.70
2023-01-04T19:11:55.701Z,10.80
2023-01-04T19:14:23.096Z,10.80
2023-01-04T19:16:50.612Z,10.80
2023-01-04T19:19:18.029Z,10.80
2023-01-04T19:21:46.314Z,10.80
2023-01-04T19:24:13.866Z,10.70
2023-01-04T19:26:41.245Z,10.80
2023-01-04T19:29:08.938Z,10.70
2023-01-04T19:31:36.494Z,10.70
2023-01-04T19:34:04.237Z,10.70
2023-01-04T19:36:31.607Z,10.70
2023-01-04T19:38:59.047Z,10.70
2023-01-04T19:41:33.753Z,10.70
2023-01-04T19:44:06.775Z,10.70
2023-01-04T19:46:36.529Z,10.70
2023-01-04T19:49:06.155Z,10.70
2023-01-04T19:51:36.799Z,10.70
2023-01-04T19:54:04.167Z,10.70
2023-01-04T19:56:31.620Z,10.70
2023-01-04T19:58:58.959Z,10.60
2023-01-04T20:01:26.415Z,10.60
2023-01-04T20:03:53.924Z,10.60
2023-01-04T20:06:21.411Z,10.60
2023-01-04T20:08:48.799Z,10.60
2023-01-04T20:11:16.263Z,10.50
2023-01-04T20:13:43.807Z,10.50
2023-01-04T20:16:11.251Z,10.50
2023-01-04T20:18:38.921Z,10.50
2023-01-04T20:21:11.465Z,10.50
2023-01-04T20:23:39.002Z,10.60
2023-01-04T20:26:12.732Z,10.60
2023-01-04T20:28:41.933Z,10.60
2023-01-04T20:31:11.133Z,10.50
2023-01-04T20:33:38.822Z,10.50
2023-01-04T20:36:13.525Z,10.50
2023-01-04T20:38:42.796Z,10.60
2023-01-04T20:41:14.666Z,10.50
2023-01-04T20:43:43.215Z,10.50
2023-01-04T20:46:13.629Z,10.50
2023-01-04T20:48:42.408Z,10.40
2023-01-04T20:51:22.177Z,10.40
2023-01-04T20:53:49.708Z,10.40
2023-01-04T20:56:25.207Z,10.40
2023-01-04T20:58:53.387Z,10.40
2023-01-04T21:01:22.141Z,10.40
2023-01-04T21:03:50.040Z,10.40
2023-01-04T21:06:18.447Z,10.30
2023-01-04T21:08:46.132Z,10.30
2023-01-04T21:11:14.134Z,10.30
2023-01-04T21:13:42.075Z,10.30
2023-01-04T21:16:09.907Z,10.30
2023-01-04T21:18:37.832Z,10.20
2023-01-04T21:21:13.287Z,10.20
2023-01-04T21:23:43.362Z,10.10
2023-01-04T21:26:17.051Z,10.00
2023-01-04T21:28:45.536Z,10.00
2023-01-04T21:31:19.407Z,10.00
2023-01-04T21:33:48.166Z,10.00
2023-01-04T21:36:21.494Z,10.00
2023-01-04T21:38:50.274Z,10.00
2023-01-04T21:41:17.999Z,10.10
2023-01-04T21:43:45.459Z,10.10
2023-01-04T21:46:15.294Z,10.10
2023-01-04T21:48:44.677Z,10.00
2023-01-04T21:51:13.229Z,10.10
2023-01-04T21:53:41.638Z,10.10
2023-01-04T21:56:15.117Z,10.10
2023-01-04T21:58:43.893Z,10.10
2023-01-04T22:01:15.172Z,10.10
2023-01-04T22:03:43.478Z,10.20
2023-01-04T22:06:13.331Z,10.20
2023-01-04T22:08:44.992Z,10.30
2023-01-04T22:11:13.973Z,10.30
2023-01-04T22:13:41.350Z,10.30
2023-01-04T22:16:11.357Z,10.30
2023-01-04T22:18:38.951Z,10.30
2023-01-04T22:21:10.229Z,10.30
2023-01-04T22:23:38.548Z,10.30
2023-01-04T22:26:06.239Z,10.30
2023-01-04T22:28:36.993Z,10.30
2023-01-04T22:31:10.495Z,10.30
2023-01-04T22:33:38.812Z,10.20
2023-01-04T22:36:08.344Z,10.30
2023-01-04T22:38:37.081Z,10.30
2023-01-04T22:41:13.365Z,10.20
2023-01-04T22:43:40.756Z,10.20
2023-01-04T22:46:11.870Z,10.20
2023-01-04T22:48:39.593Z,10.20
2023-01-04T22:51:08.775Z,10.20
2023-01-04T22:53:36.714Z,10.10
2023-01-04T22:56:18.939Z,10.10
2023-01-04T22:58:53.357Z,10.10
2023-01-04T23:01:23.357Z,10.00
2023-01-04T23:03:51.979Z,9.90
2023-01-04T23:06:20.589Z,9.80
2023-01-04T23:08:48.893Z,9.80
2023-01-04T23:11:18.543Z,9.70
2023-01-04T23:13:48.273Z,9.70
2023-01-04T23:16:17.387Z,9.60
2023-01-04T23:18:45.471Z,9.60
2023-01-04T23:21:13.296Z,9.60
2023-01-04T23:23:40.936Z,9.50
2023-01-04T23:26:13.635Z,9.40
2023-01-04T23:28:41.586Z,9.40
2023-01-04T23:31:12.075Z,9.30
2023-01-04T23:33:40.322Z,9.30
2023-01-04T23:36:08.798Z,9.40
2023-01-04T23:38:36.846Z,9.40
2023-01-04T23:41:04.661Z,9.40
2023-01-04T23:43:32.565Z,9.50
2023-01-04T23:46:04.520Z,9.50
2023-01-04T23:48:31.941Z,9.50
2023-01-04T23:50:59.630Z,9.60
2023-01-04T23:53:27.073Z,9.60
2023-01-04T23:56:06.014Z,9.60
2023-01-04T23:58:34.079Z,9.60
